Time;durP1;ratioP1;P1;durP2;ratioP2;P2;SDS_P1;SDS_P2;PMS_P1;PMS_P2;Temp;Humidity;BMP_temperature;BMP_pressure;BME280_temperature;BME280_humidity;BME280_pressure;Samples;Min_cycle;Max_cycle;Signal;HPM_P1;HPM_P2
2022/10/23 00:02:01;;;;;;;9.50;6.03;;;;;;;-144.59;100.00;63158.22;5086363;28;20268;-83
2022/10/23 00:04:33;;;;;;;11.13;5.87;;;;;;;-144.59;100.00;63158.22;5010366;28;20277;-83
2022/10/23 00:07:02;;;;;;;8.40;5.80;;;;;;;-144.59;100.00;63158.22;5001643;28;20218;-82
2022/10/23 00:09:34;;;;;;;9.50;6.30;;;;;;;-144.59;100.00;63158.22;4986953;28;20218;-83
2022/10/23 00:12:03;;;;;;;9.77;5.80;;;;;;;-144.59;100.00;63158.22;4969081;28;20207;-83
2022/10/23 00:14:35;;;;;;;8.83;5.57;;;;;;;-144.59;100.00;63158.22;4938268;28;20239;-82
2022/10/23 00:17:04;;;;;;;12.60;6.17;;;;;;;-144.59;100.00;63158.22;4966405;28;20231;-83
2022/10/23 00:19:36;;;;;;;12.60;6.23;;;;;;;-144.59;100.00;63158.22;4971158;28;20719;-82
2022/10/23 00:22:07;;;;;;;10.23;6.00;;;;;;;-144.59;100.00;63158.22;4906810;29;20277;-82
2022/10/23 00:24:38;;;;;;;15.03;7.67;;;;;;;-144.59;100.00;63158.22;4911815;29;20273;-83
2022/10/23 00:27:10;;;;;;;14.77;7.00;;;;;;;-144.59;100.00;63158.22;4908066;29;20207;-83
2022/10/23 00:29:41;;;;;;;9.27;7.00;;;;;;;-144.59;100.00;63158.22;4857513;29;20261;-83
2022/10/23 00:32:10;;;;;;;22.47;9.73;;;;;;;-144.59;100.00;63158.22;4856462;29;20216;-82
2022/10/23 00:34:38;;;;;;;11.60;6.93;;;;;;;-144.59;100.00;63158.22;4864633;29;20688;-83
2022/10/23 00:37:07;;;;;;;11.97;6.80;;;;;;;-144.59;100.00;63158.22;4934868;29;20195;-82
2022/10/23 00:39:36;;;;;;;11.17;6.03;;;;;;;-144.59;100.00;63158.22;4949797;29;21194;-83
2022/10/23 00:42:04;;;;;;;12.83;7.40;;;;;;;-144.59;100.00;63158.22;4951227;28;20271;-83
2022/10/23 00:45:10;;;;;;;12.83;7.77;;;;;;;-144.59;100.00;63158.22;4944240;29;20197;-82
2022/10/23 00:47:41;;;;;;;12.40;7.20;;;;;;;-144.59;100.00;63158.22;5001101;28;20194;-82
2022/10/23 00:50:09;;;;;;;11.00;6.30;;;;;;;-144.59;100.00;63158.22;5009801;28;20194;-82
2022/10/23 00:52:46;;;;;;;9.87;5.53;;;;;;;-144.59;100.00;63158.22;5006164;28;20199;-83
2022/10/23 00:55:19;;;;;;;16.10;7.93;;;;;;;-144.59;100.00;63158.22;5073367;28;20245;-83
2022/10/23 00:57:50;;;;;;;12.20;6.67;;;;;;;-144.59;100.00;63158.22;5085996;28;20287;-83
2022/10/23 01:00:22;;;;;;;8.50;4.40;;;;;;;-144.59;100.00;63158.22;5092542;28;20188;-83
2022/10/23 01:02:53;;;;;;;13.77;5.33;;;;;;;-144.59;100.00;63158.22;5085496;28;20263;-82
2022/10/23 01:05:32;;;;;;;9.30;5.53;;;;;;;-144.59;100.00;63158.22;5091504;28;20198;-83
2022/10/23 01:08:12;;;;;;;8.23;5.23;;;;;;;-144.59;100.00;63158.22;5087122;28;20191;-83
2022/10/23 01:10:55;;;;;;;9.70;5.13;;;;;;;-144.59;100.00;63158.22;5089401;28;20195;-83
2022/10/23 01:13:34;;;;;;;10.37;5.40;;;;;;;-144.59;100.00;63158.22;5086241;28;20650;-83
2022/10/23 01:16:12;;;;;;;9.27;5.10;;;;;;;-144.59;100.00;63158.22;5009427;28;20257;-83
2022/10/23 01:18:47;;;;;;;7.07;4.90;;;;;;;-144.59;100.00;63158.22;5006425;28;20745;-82
2022/10/23 01:21:23;;;;;;;9.63;4.80;;;;;;;-144.59;100.00;63158.22;4968772;28;20223;-83
2022/10/23 01:24:10;;;;;;;5.40;4.17;;;;;;;-144.59;100.00;63158.22;4970469;28;20211;-82
2022/10/23 01:26:57;;;;;;;5.73;4.37;;;;;;;-144.59;100.00;63158.22;4949632;28;20204;-82
2022/10/23 01:29:34;;;;;;;7.70;4.30;;;;;;;-144.59;100.00;63158.22;4947014;28;20204;-82
2022/10/23 01:32:10;;;;;;;6.07;3.60;;;;;;;-144.59;100.00;63158.22;4957073;28;20192;-83
2022/10/23 01:34:47;;;;;;;4.23;2.87;;;;;;;-144.59;100.00;63158.22;4963441;28;20199;-82
2022/10/23 01:37:32;;;;;;;2.67;2.30;;;;;;;-144.59;100.00;63158.22;4971553;28;20702;-82
2022/10/23 01:40:05;;;;;;;5.87;4.03;;;;;;;-144.59;100.00;63158.22;5010859;28;20503;-82
2022/10/23 01:42:41;;;;;;;6.33;4.40;;;;;;;-144.59;100.00;63158.22;5028540;28;20217;-83
2022/10/23 01:45:20;;;;;;;9.80;4.47;;;;;;;-144.59;100.00;63158.22;5051659;28;20203;-83
2022/10/23 01:47:51;;;;;;;5.53;3.90;;;;;;;-144.59;100.00;63158.22;5063220;28;20215;-82
2022/10/23 01:50:22;;;;;;;9.03;4.43;;;;;;;-144.59;100.00;63158.22;5063280;28;20200;-82
2022/10/23 01:52:52;;;;;;;5.00;3.97;;;;;;;-144.59;100.00;63158.22;5060357;28;20203;-82
2022/10/23 01:55:22;;;;;;;5.53;3.17;;;;;;;-144.59;100.00;63158.22;5065387;28;20644;-82
2022/10/23 01:57:54;;;;;;;3.87;2.60;;;;;;;-144.59;100.00;63158.22;5071160;28;20238;-83
2022/10/23 02:00:27;;;;;;;3.33;2.23;;;;;;;-144.59;100.00;63158.22;5065202;28;20229;-83
2022/10/23 02:02:58;;;;;;;4.53;2.70;;;;;;;-144.59;100.00;63158.22;5060887;28;20220;-83
2022/10/23 02:05:31;;;;;;;3.20;2.53;;;;;;;-144.59;100.00;63158.22;5074794;28;20224;-82
2022/10/23 02:08:00;;;;;;;5.07;2.93;;;;;;;-144.59;100.00;63158.22;5067223;28;20258;-84
2022/10/23 02:10:34;;;;;;;4.53;2.90;;;;;;;-144.59;100.00;63158.22;5050042;28;20193;-83
2022/10/23 02:13:09;;;;;;;4.73;2.90;;;;;;;-144.59;100.00;63158.22;5031418;28;20266;-83
2022/10/23 02:15:48;;;;;;;99.33;7.30;;;;;;;-144.59;100.00;63158.22;5044692;28;20200;-83
2022/10/23 02:18:30;;;;;;;9.37;3.10;;;;;;;-144.59;100.00;63158.22;5061304;28;20311;-82
2022/10/23 02:21:03;;;;;;;5.47;3.63;;;;;;;-144.59;100.00;63158.22;5066128;28;20246;-83
2022/10/23 02:23:35;;;;;;;5.63;3.87;;;;;;;-144.59;100.00;63158.22;5070840;28;20216;-82
2022/10/23 02:26:11;;;;;;;7.20;3.73;;;;;;;-144.59;100.00;63158.22;5070883;28;20205;-83
2022/10/23 02:28:46;;;;;;;6.43;3.63;;;;;;;-144.59;100.00;63158.22;5070043;28;20196;-82
2022/10/23 02:31:24;;;;;;;3.83;2.80;;;;;;;-144.59;100.00;63158.22;5070037;28;20219;-82
2022/10/23 02:33:55;;;;;;;6.47;3.10;;;;;;;-144.59;100.00;63158.22;5062036;28;20202;-83
2022/10/23 02:36:24;;;;;;;4.80;3.00;;;;;;;-144.59;100.00;63158.22;4992722;28;20199;-82
2022/10/23 02:38:55;;;;;;;4.97;3.03;;;;;;;-144.59;100.00;63158.22;4979107;28;20198;-83
2022/10/23 02:41:38;;;;;;;6.60;2.97;;;;;;;-144.59;100.00;63158.22;4987181;28;20265;-82
2022/10/23 02:44:33;;;;;;;12.57;3.70;;;;;;;-144.59;100.00;63158.22;4988900;28;20211;-82
2022/10/23 02:47:17;;;;;;;5.30;2.90;;;;;;;-144.59;100.00;63158.22;4983063;28;20203;-82
2022/10/23 02:49:56;;;;;;;8.97;3.43;;;;;;;-144.59;100.00;63158.22;4986678;28;20199;-83
2022/10/23 02:52:30;;;;;;;17.40;4.53;;;;;;;-144.59;100.00;63158.22;4971364;28;20242;-83
2022/10/23 02:55:10;;;;;;;4.83;3.90;;;;;;;-144.59;100.00;63158.22;4963417;28;20353;-82
2022/10/23 02:57:47;;;;;;;5.13;3.07;;;;;;;-144.59;100.00;63158.22;4988428;28;20353;-82
2022/10/23 03:00:20;;;;;;;12.77;2.97;;;;;;;-144.59;100.00;63158.22;4989308;28;20206;-82
2022/10/23 03:02:58;;;;;;;17.63;3.50;;;;;;;-144.59;100.00;63158.22;4969168;28;20220;-82
2022/10/23 03:05:31;;;;;;;3.60;2.80;;;;;;;-144.59;100.00;63158.22;4970247;28;20655;-83
2022/10/23 03:08:03;;;;;;;4.13;2.80;;;;;;;-144.59;100.00;63158.22;4968909;28;20218;-82
2022/10/23 03:10:32;;;;;;;4.07;2.47;;;;;;;-144.59;100.00;63158.22;4975132;28;20230;-83
2022/10/23 03:13:04;;;;;;;9.87;3.70;;;;;;;-144.59;100.00;63158.22;5011539;28;20197;-82
2022/10/23 03:15:34;;;;;;;11.80;3.40;;;;;;;-144.59;100.00;63158.22;5024633;28;20255;-81
2022/10/23 03:18:08;;;;;;;21.37;3.03;;;;;;;-144.59;100.00;63158.22;5010990;28;20252;-82
2022/10/23 03:20:38;;;;;;;39.13;5.27;;;;;;;-144.59;100.00;63158.22;5042533;28;20257;-82
2022/10/23 03:23:06;;;;;;;88.03;6.40;;;;;;;-144.59;100.00;63158.22;4987564;28;20223;-83
2022/10/23 03:25:35;;;;;;;14.63;3.97;;;;;;;-144.59;100.00;63158.22;4955208;28;20275;-83
2022/10/23 03:28:04;;;;;;;38.50;4.87;;;;;;;-144.59;100.00;63158.22;4989220;28;20249;-83
2022/10/23 03:30:32;;;;;;;6.30;3.60;;;;;;;-144.59;100.00;63158.22;4984070;28;20203;-82
2022/10/23 03:33:03;;;;;;;8.93;3.50;;;;;;;-144.59;100.00;63158.22;4974900;28;20204;-83
2022/10/23 03:35:35;;;;;;;4.00;2.33;;;;;;;-144.59;100.00;63158.22;4966816;28;20196;-83
2022/10/23 03:38:06;;;;;;;3.57;3.27;;;;;;;-144.59;100.00;63158.22;4965644;28;20231;-83
2022/10/23 03:40:40;;;;;;;5.40;3.70;;;;;;;-144.59;100.00;63158.22;4966217;28;20655;-83
2022/10/23 03:43:10;;;;;;;6.23;3.87;;;;;;;-144.59;100.00;63158.22;4968781;28;20238;-83
2022/10/23 03:45:41;;;;;;;6.77;3.47;;;;;;;-144.59;100.00;63158.22;4967344;28;20246;-83
2022/10/23 03:48:11;;;;;;;6.57;3.47;;;;;;;-144.59;100.00;63158.22;4969484;28;20278;-83
2022/10/23 03:50:41;;;;;;;5.17;3.20;;;;;;;-144.59;100.00;63158.22;4966419;28;20199;-82
2022/10/23 03:53:19;;;;;;;3.80;2.60;;;;;;;-144.59;100.00;63158.22;4972730;28;20267;-83
2022/10/23 03:55:51;;;;;;;4.60;2.97;;;;;;;-144.59;100.00;63158.22;5024564;28;20201;-84
2022/10/23 03:58:21;;;;;;;9.33;3.67;;;;;;;-144.59;100.00;63158.22;5021489;28;20248;-82
2022/10/23 04:00:51;;;;;;;9.47;3.93;;;;;;;-144.59;100.00;63158.22;5026757;28;20202;-82
2022/10/23 04:03:22;;;;;;;17.13;4.73;;;;;;;-144.59;100.00;63158.22;5023800;28;20263;-83
2022/10/23 04:06:00;;;;;;;6.23;3.37;;;;;;;-144.59;100.00;63158.22;5021977;28;20293;-83
2022/10/23 04:08:28;;;;;;;5.53;3.37;;;;;;;-144.59;100.00;63158.22;5023416;28;20189;-82
2022/10/23 04:11:01;;;;;;;5.20;2.87;;;;;;;-144.59;100.00;63158.22;4948638;29;20228;-82
2022/10/23 04:13:30;;;;;;;4.63;3.07;;;;;;;-144.59;100.00;63158.22;4952528;29;20204;-83
2022/10/23 04:16:01;;;;;;;3.97;3.27;;;;;;;-144.59;100.00;63158.22;4915079;29;20209;-83
2022/10/23 04:18:31;;;;;;;3.97;2.67;;;;;;;-144.59;100.00;63158.22;4946593;28;20223;-83
2022/10/23 04:21:05;;;;;;;6.50;3.70;;;;;;;-144.59;100.00;63158.22;4950996;29;20208;-83
2022/10/23 04:23:34;;;;;;;3.10;2.20;;;;;;;-144.59;100.00;63158.22;4949362;29;20232;-82
2022/10/23 04:26:03;;;;;;;2.87;2.57;;;;;;;-144.59;100.00;63158.22;4945878;29;20204;-82
2022/10/23 04:28:37;;;;;;;2.40;2.20;;;;;;;-144.59;100.00;63158.22;4892567;29;20235;-83
2022/10/23 04:31:06;;;;;;;3.53;2.70;;;;;;;-144.59;100.00;63158.22;4892819;29;20314;-83
2022/10/23 04:33:35;;;;;;;2.90;2.50;;;;;;;-144.59;100.00;63158.22;4910152;29;20629;-82
2022/10/23 04:36:07;;;;;;;3.33;2.40;;;;;;;-144.59;100.00;63158.22;4989051;28;20191;-83
2022/10/23 04:38:37;;;;;;;4.37;2.70;;;;;;;-144.59;100.00;63158.22;5001713;28;20197;-83
2022/10/23 04:41:09;;;;;;;4.33;3.03;;;;;;;-144.59;100.00;63158.22;5006479;28;20220;-83
2022/10/23 04:43:38;;;;;;;3.60;2.83;;;;;;;-144.59;100.00;63158.22;5009384;28;20325;-82
2022/10/23 04:46:13;;;;;;;3.87;2.80;;;;;;;-144.59;100.00;63158.22;4940358;28;20257;-83
2022/10/23 04:48:45;;;;;;;5.03;2.17;;;;;;;-144.59;100.00;63158.22;4913761;29;20194;-82
2022/10/23 04:51:17;;;;;;;3.93;2.20;;;;;;;-144.59;100.00;63158.22;4909042;29;20261;-83
2022/10/23 04:53:46;;;;;;;3.77;2.50;;;;;;;-144.59;100.00;63158.22;4892113;29;20202;-82
2022/10/23 04:56:20;;;;;;;4.00;2.53;;;;;;;-144.59;100.00;63158.22;4881833;29;20215;-83
2022/10/23 04:58:53;;;;;;;4.23;2.37;;;;;;;-144.59;100.00;63158.22;4864051;29;20317;-82
2022/10/23 05:01:22;;;;;;;3.77;2.67;;;;;;;-144.59;100.00;63158.22;4803407;29;20209;-82
2022/10/23 05:03:52;;;;;;;7.30;2.60;;;;;;;-144.59;100.00;63158.22;4817145;29;20235;-83
2022/10/23 05:06:23;;;;;;;4.20;2.50;;;;;;;-144.59;100.00;63158.22;4857839;29;20203;-82
2022/10/23 05:08:52;;;;;;;7.50;2.87;;;;;;;-144.59;100.00;63158.22;4851238;29;20218;-82
2022/10/23 05:11:22;;;;;;;8.20;3.10;;;;;;;-144.59;100.00;63158.22;4837620;29;20280;-82
2022/10/23 05:13:51;;;;;;;7.60;3.17;;;;;;;-144.59;100.00;63158.22;4882909;29;20684;-82
2022/10/23 05:16:32;;;;;;;10.73;3.93;;;;;;;-144.59;100.00;63158.22;4878199;29;20205;-82
2022/10/23 05:19:01;;;;;;;11.33;4.53;;;;;;;-144.59;100.00;63158.22;4877782;29;20235;-83
2022/10/23 05:21:36;;;;;;;36.20;7.13;;;;;;;-144.59;100.00;63158.22;4884505;29;20201;-82
2022/10/23 05:24:07;;;;;;;7.77;4.90;;;;;;;-144.59;100.00;63158.22;4890068;29;20225;-82
2022/10/23 05:26:37;;;;;;;8.37;4.13;;;;;;;-144.59;100.00;63158.22;4825576;29;20208;-83
2022/10/23 05:29:06;;;;;;;7.47;4.30;;;;;;;-144.59;100.00;63158.22;4798831;29;20254;-82
2022/10/23 05:31:36;;;;;;;13.57;4.10;;;;;;;-144.59;100.00;63158.22;4800998;29;20214;-82
2022/10/23 05:34:07;;;;;;;5.33;3.70;;;;;;;-144.59;100.00;63158.22;4810762;29;20211;-82
2022/10/23 05:36:46;;;;;;;6.73;2.77;;;;;;;-144.59;100.00;63158.22;4792744;29;20235;-82
2022/10/23 05:39:16;;;;;;;4.33;3.00;;;;;;;-144.59;100.00;63158.22;4817984;29;20212;-82
2022/10/23 05:41:48;;;;;;;6.60;3.70;;;;;;;-144.59;100.00;63158.22;4822307;29;20287;-82
2022/10/23 05:44:22;;;;;;;7.07;3.70;;;;;;;-144.59;100.00;63158.22;4801451;29;20686;-82
2022/10/23 05:49:47;;;;;;;8.93;2.70;;;;;;;-144.59;100.00;63158.22;4822121;29;20235;-83
2022/10/23 05:52:28;;;;;;;3.53;2.57;;;;;;;-144.59;100.00;63158.22;4808184;29;20209;-83
2022/10/23 05:55:10;;;;;;;3.70;2.90;;;;;;;-144.59;100.00;63158.22;4841483;29;20285;-82
2022/10/23 05:57:41;;;;;;;3.77;2.60;;;;;;;-144.59;100.00;63158.22;4854018;29;20244;-83
2022/10/23 06:00:22;;;;;;;4.13;2.77;;;;;;;-144.59;100.00;63158.22;4857233;29;20207;-83
2022/10/23 06:02:51;;;;;;;7.27;2.77;;;;;;;-144.59;100.00;63158.22;4878468;29;20361;-82
2022/10/23 06:05:25;;;;;;;7.20;3.23;;;;;;;-144.59;100.00;63158.22;4875361;29;20227;-83
2022/10/23 06:08:00;;;;;;;6.53;2.90;;;;;;;-144.59;100.00;63158.22;4873873;29;20211;-82
2022/10/23 06:10:31;;;;;;;4.20;3.33;;;;;;;-144.59;100.00;63158.22;4854189;29;20204;-82
2022/10/23 06:13:02;;;;;;;5.47;2.80;;;;;;;-144.59;100.00;63158.22;4863165;29;20734;-82
2022/10/23 06:15:39;;;;;;;3.40;2.83;;;;;;;-144.59;100.00;63158.22;4872911;29;20282;-82
2022/10/23 06:18:09;;;;;;;4.43;3.03;;;;;;;-144.59;100.00;63158.22;4887191;29;20313;-82
2022/10/23 06:20:45;;;;;;;4.73;2.83;;;;;;;-144.59;100.00;63158.22;4901304;29;20206;-83
2022/10/23 06:23:18;;;;;;;6.37;3.53;;;;;;;-144.59;100.00;63158.22;4938034;28;20273;-82
2022/10/23 06:25:52;;;;;;;6.00;3.43;;;;;;;-144.59;100.00;63158.22;4983573;28;20768;-83
2022/10/23 06:28:23;;;;;;;4.73;3.17;;;;;;;-144.59;100.00;63158.22;4988453;28;20232;-82
2022/10/23 06:30:52;;;;;;;6.83;2.90;;;;;;;-144.59;100.00;63158.22;5004005;28;20195;-82
2022/10/23 06:33:24;;;;;;;7.07;3.00;;;;;;;-144.59;100.00;63158.22;5022964;28;20233;-82
2022/10/23 06:35:56;;;;;;;4.07;2.63;;;;;;;-144.59;100.00;63158.22;5067807;28;20202;-82
2022/10/23 06:38:38;;;;;;;8.17;2.97;;;;;;;-144.59;100.00;63158.22;5061947;28;20203;-82
2022/10/23 06:41:17;;;;;;;4.53;3.30;;;;;;;-144.59;100.00;63158.22;5068278;28;20210;-82
2022/10/23 06:43:53;;;;;;;5.53;3.33;;;;;;;-144.59;100.00;63158.22;5065092;28;20243;-82
2022/10/23 06:46:29;;;;;;;6.43;3.90;;;;;;;-144.59;100.00;63158.22;5062259;28;20200;-82
2022/10/23 06:48:59;;;;;;;8.53;4.10;;;;;;;-144.59;100.00;63158.22;5071147;28;20211;-82
2022/10/23 06:51:32;;;;;;;4.27;3.73;;;;;;;-144.59;100.00;63158.22;5068712;28;20200;-82
2022/10/23 06:54:06;;;;;;;5.63;3.23;;;;;;;-144.59;100.00;63158.22;5066753;28;20246;-82
2022/10/23 06:56:35;;;;;;;8.53;3.27;;;;;;;-144.59;100.00;63158.22;4957837;28;20192;-82
2022/10/23 06:59:09;;;;;;;3.20;2.83;;;;;;;-144.59;100.00;63158.22;4953764;28;20212;-82
2022/10/23 07:01:42;;;;;;;5.13;3.10;;;;;;;-144.59;100.00;63158.22;4952331;28;20244;-82
2022/10/23 07:04:16;;;;;;;3.80;3.40;;;;;;;-144.59;100.00;63158.22;4847884;29;20192;-82
2022/10/23 07:06:48;;;;;;;5.40;3.40;;;;;;;-144.59;100.00;63158.22;4851274;29;20252;-83
2022/10/23 07:09:20;;;;;;;5.40;3.57;;;;;;;-144.59;100.00;63158.22;4859781;29;20206;-82
2022/10/23 07:11:49;;;;;;;7.87;2.97;;;;;;;-144.59;100.00;63158.22;4851279;29;20772;-83
2022/10/23 07:14:18;;;;;;;4.00;3.07;;;;;;;-144.59;100.00;63158.22;4817301;29;20191;-82
2022/10/23 07:16:48;;;;;;;6.90;3.20;;;;;;;-144.59;100.00;63158.22;4890173;29;20686;-83
2022/10/23 07:19:23;;;;;;;5.80;3.37;;;;;;;-144.59;100.00;63158.22;4860621;29;20211;-83
2022/10/23 07:21:53;;;;;;;6.17;3.13;;;;;;;-144.59;100.00;63158.22;4870325;29;20214;-83
2022/10/23 07:24:27;;;;;;;9.57;4.50;;;;;;;-144.59;100.00;63158.22;4874486;29;20207;-82
2022/10/23 07:27:00;;;;;;;4.20;2.73;;;;;;;-144.59;100.00;63158.22;4878990;29;20226;-82
2022/10/23 07:29:35;;;;;;;4.77;3.87;;;;;;;-144.59;100.00;63158.22;4920503;29;20212;-83
2022/10/23 07:32:03;;;;;;;6.73;4.60;;;;;;;-144.59;100.00;63158.22;4971455;28;20306;-83
2022/10/23 07:34:37;;;;;;;12.13;6.00;;;;;;;-144.59;100.00;63158.22;4967729;28;20204;-82
2022/10/23 07:37:06;;;;;;;8.17;5.90;;;;;;;-144.59;100.00;63158.22;4956719;28;20196;-83
2022/10/23 07:39:45;;;;;;;12.67;5.93;;;;;;;-144.59;100.00;63158.22;4972632;28;20203;-82
2022/10/23 07:42:17;;;;;;;7.40;5.20;;;;;;;-144.59;100.00;63158.22;4966925;28;20192;-83
2022/10/23 07:44:45;;;;;;;6.20;5.50;;;;;;;-144.59;100.00;63158.22;4969161;28;20231;-83
2022/10/23 07:47:15;;;;;;;7.03;4.50;;;;;;;-144.59;100.00;63158.22;4967320;28;20231;-82
2022/10/23 07:49:45;;;;;;;7.47;4.20;;;;;;;-144.59;100.00;63158.22;4979492;28;20272;-83
2022/10/23 07:52:18;;;;;;;8.20;3.80;;;;;;;-144.59;100.00;63158.22;5026957;28;20216;-83
2022/10/23 07:54:52;;;;;;;5.90;3.80;;;;;;;-144.59;100.00;63158.22;5019229;28;20194;-84
2022/10/23 07:57:22;;;;;;;8.97;4.50;;;;;;;-144.59;100.00;63158.22;5020832;28;20232;-83
2022/10/23 07:59:53;;;;;;;6.83;5.10;;;;;;;-144.59;100.00;63158.22;5038384;28;20218;-83
2022/10/23 08:02:22;;;;;;;8.07;4.80;;;;;;;-144.59;100.00;63158.22;5087421;28;20279;-83
2022/10/23 08:04:55;;;;;;;8.23;3.73;;;;;;;-144.59;100.00;63158.22;5084310;28;20226;-83
2022/10/23 08:07:24;;;;;;;4.53;3.77;;;;;;;-144.59;100.00;63158.22;5087385;28;20286;-82
2022/10/23 08:09:59;;;;;;;5.97;3.77;;;;;;;-144.59;100.00;63158.22;5024489;28;20207;-83
2022/10/23 08:12:30;;;;;;;8.20;3.17;;;;;;;-144.59;100.00;63158.22;4951281;28;20666;-83
2022/10/23 08:15:01;;;;;;;5.70;2.80;;;;;;;-144.59;100.00;63158.22;4893762;29;20209;-83
2022/10/23 08:17:30;;;;;;;4.83;3.23;;;;;;;-144.59;100.00;63158.22;4891162;29;20234;-83
2022/10/23 08:20:00;;;;;;;7.90;2.67;;;;;;;-144.59;100.00;63158.22;4890343;29;20261;-83
2022/10/23 08:22:37;;;;;;;6.33;2.43;;;;;;;-144.59;100.00;63158.22;4895364;29;20205;-82
2022/10/23 08:25:11;;;;;;;7.33;2.23;;;;;;;-144.59;100.00;63158.22;4840772;29;20220;-83
2022/10/23 08:27:43;;;;;;;4.63;2.30;;;;;;;-144.59;100.00;63158.22;4818720;29;20201;-83
2022/10/23 08:30:16;;;;;;;10.93;2.90;;;;;;;-144.59;100.00;63158.22;4806414;29;20201;-83
2022/10/23 08:32:47;;;;;;;8.20;2.50;;;;;;;-144.59;100.00;63158.22;4822753;29;20203;-83
2022/10/23 08:35:20;;;;;;;2.70;2.20;;;;;;;-144.59;100.00;63158.22;4820298;29;20288;-83
2022/10/23 08:37:52;;;;;;;4.37;2.20;;;;;;;-144.59;100.00;63158.22;4875346;29;20202;-83
2022/10/23 08:40:27;;;;;;;4.90;2.40;;;;;;;-144.59;100.00;63158.22;4921827;29;20214;-83
2022/10/23 08:43:03;;;;;;;8.77;3.00;;;;;;;-144.59;100.00;63158.22;4896286;29;20198;-83
2022/10/23 08:45:40;;;;;;;8.23;2.40;;;;;;;-144.59;100.00;63158.22;4895691;29;20218;-83
2022/10/23 08:48:18;;;;;;;5.23;2.47;;;;;;;-144.59;100.00;63158.22;4893408;29;20202;-83
2022/10/23 08:51:01;;;;;;;6.63;2.53;;;;;;;-144.59;100.00;63158.22;4877061;29;20217;-83
2022/10/23 08:53:40;;;;;;;4.87;2.70;;;;;;;-144.59;100.00;63158.22;4879270;29;20213;-83
2022/10/23 08:56:18;;;;;;;8.93;2.60;;;;;;;-144.59;100.00;63158.22;4916631;29;20641;-83
2022/10/23 08:58:53;;;;;;;7.87;2.70;;;;;;;-144.59;100.00;63158.22;4931224;29;20200;-83
2022/10/23 09:01:37;;;;;;;7.20;2.23;;;;;;;-144.59;100.00;63158.22;4969494;28;20205;-82
2022/10/23 09:04:12;;;;;;;5.33;2.50;;;;;;;-144.59;100.00;63158.22;5003140;28;20191;-82
2022/10/23 09:06:48;;;;;;;6.23;2.27;;;;;;;-144.59;100.00;63158.22;5004277;28;20268;-82
2022/10/23 09:09:38;;;;;;;5.73;2.40;;;;;;;-144.59;100.00;63158.22;5061771;28;20199;-82
2022/10/23 09:12:15;;;;;;;5.20;2.00;;;;;;;-144.59;100.00;63158.22;5090906;28;20658;-84
2022/10/23 09:15:09;;;;;;;6.03;2.30;;;;;;;-144.59;100.00;63158.22;4986968;28;20194;-82
2022/10/23 09:17:43;;;;;;;3.30;1.97;;;;;;;-144.59;100.00;63158.22;4986763;28;20238;-82
2022/10/23 09:20:19;;;;;;;3.90;1.90;;;;;;;-144.59;100.00;63158.22;4990497;28;20187;-82
2022/10/23 09:22:50;;;;;;;4.73;1.90;;;;;;;-144.59;100.00;63158.22;4991676;28;20344;-82
2022/10/23 09:25:22;;;;;;;4.07;2.10;;;;;;;-144.59;100.00;63158.22;4991453;28;20249;-82
2022/10/23 09:27:55;;;;;;;4.77;2.17;;;;;;;-144.59;100.00;63158.22;4885746;29;20309;-82
2022/10/23 09:30:41;;;;;;;5.07;1.90;;;;;;;-144.59;100.00;63158.22;4891585;29;20202;-82
2022/10/23 09:33:15;;;;;;;4.43;1.83;;;;;;;-144.59;100.00;63158.22;4931658;28;20203;-82
2022/10/23 09:35:56;;;;;;;4.87;1.63;;;;;;;-144.59;100.00;63158.22;4966351;28;20225;-82
2022/10/23 09:38:30;;;;;;;3.53;1.80;;;;;;;-144.59;100.00;63158.22;4967003;28;20212;-82
2022/10/23 09:41:03;;;;;;;6.67;1.80;;;;;;;-144.59;100.00;63158.22;4966684;28;20256;-81
2022/10/23 09:43:35;;;;;;;3.70;2.00;;;;;;;-144.59;100.00;63158.22;4969385;28;20277;-82
2022/10/23 09:46:08;;;;;;;4.60;2.00;;;;;;;-144.59;100.00;63158.22;4980791;28;20218;-82
2022/10/23 09:48:36;;;;;;;7.50;2.00;;;;;;;-144.59;100.00;63158.22;5003146;28;20252;-82
2022/10/23 09:51:17;;;;;;;5.53;2.07;;;;;;;-144.59;100.00;63158.22;5003775;28;20226;-82
2022/10/23 09:53:51;;;;;;;2.53;1.60;;;;;;;-144.59;100.00;63158.22;5086549;28;20199;-82
2022/10/23 09:56:29;;;;;;;4.70;2.00;;;;;;;-144.59;100.00;63158.22;5085197;28;20190;-82
2022/10/23 09:59:02;;;;;;;7.73;2.27;;;;;;;-144.59;100.00;63158.22;5089518;28;20673;-82
2022/10/23 10:01:34;;;;;;;4.43;2.07;;;;;;;-144.59;100.00;63158.22;5088100;28;20310;-83
2022/10/23 10:04:03;;;;;;;4.03;1.90;;;;;;;-144.59;100.00;63158.22;5085233;28;20188;-82
2022/10/23 10:06:34;;;;;;;4.93;1.93;;;;;;;-144.59;100.00;63158.22;5082199;28;20216;-82
2022/10/23 10:09:08;;;;;;;3.20;2.10;;;;;;;-144.59;100.00;63158.22;5090425;28;20215;-82
2022/10/23 10:11:42;;;;;;;6.00;2.03;;;;;;;-144.59;100.00;63158.22;5084950;28;20196;-82
2022/10/23 10:14:43;;;;;;;3.37;1.53;;;;;;;-144.59;100.00;63158.22;5083062;28;20207;-84
2022/10/23 10:17:23;;;;;;;4.07;2.30;;;;;;;-144.59;100.00;63158.22;5086790;28;20269;-82
2022/10/23 10:20:14;;;;;;;6.20;2.27;;;;;;;-144.59;100.00;63158.22;5088768;28;20650;-82
2022/10/23 10:22:50;;;;;;;4.73;2.10;;;;;;;-144.59;100.00;63158.22;5054223;28;20189;-82
2022/10/23 10:25:29;;;;;;;7.37;2.43;;;;;;;-144.59;100.00;63158.22;5009682;28;20268;-82
2022/10/23 10:28:16;;;;;;;4.63;2.20;;;;;;;-144.59;100.00;63158.22;5013141;28;20218;-82
2022/10/23 10:30:56;;;;;;;5.87;2.23;;;;;;;-144.59;100.00;63158.22;5008608;28;20190;-82
2022/10/23 10:33:36;;;;;;;2.97;1.90;;;;;;;-144.59;100.00;63158.22;5011600;28;20194;-82
2022/10/23 10:36:20;;;;;;;3.53;1.83;;;;;;;-144.59;100.00;63158.22;4964680;28;20271;-82
2022/10/23 10:38:53;;;;;;;5.80;1.93;;;;;;;-144.59;100.00;63158.22;4951696;28;20220;-82
2022/10/23 10:42:01;;;;;;;2.17;1.83;;;;;;;-144.59;100.00;63158.22;4944440;28;20230;-82
2022/10/23 10:44:43;;;;;;;5.37;1.70;;;;;;;-144.59;100.00;63158.22;4996595;28;20212;-82
2022/10/23 10:47:19;;;;;;;3.50;1.83;;;;;;;-144.59;100.00;63158.22;5022863;28;20276;-82
2022/10/23 10:49:59;;;;;;;2.13;1.80;;;;;;;-144.59;100.00;63158.22;5025081;28;20197;-82
2022/10/23 10:52:38;;;;;;;4.20;2.20;;;;;;;-144.59;100.00;63158.22;5024768;28;20217;-81
2022/10/23 10:55:25;;;;;;;3.33;1.83;;;;;;;-144.59;100.00;63158.22;5030471;28;20234;-82
2022/10/23 10:57:59;;;;;;;5.50;2.10;;;;;;;-144.59;100.00;63158.22;5080504;28;20191;-82
2022/10/23 11:00:31;;;;;;;2.73;1.70;;;;;;;-144.59;100.00;63158.22;5084556;28;20204;-82
2022/10/23 11:03:16;;;;;;;4.73;2.10;;;;;;;-144.59;100.00;63158.22;5088085;28;20222;-82
2022/10/23 11:05:49;;;;;;;4.43;2.10;;;;;;;-144.59;100.00;63158.22;5015551;28;20206;-82
2022/10/23 11:08:23;;;;;;;6.20;1.97;;;;;;;-144.59;100.00;63158.22;4955222;29;20261;-82
2022/10/23 11:10:59;;;;;;;3.63;1.73;;;;;;;-144.59;100.00;63158.22;4951167;29;20200;-81
2022/10/23 11:13:33;;;;;;;3.87;1.80;;;;;;;-144.59;100.00;63158.22;4955262;29;20204;-83
2022/10/23 11:16:09;;;;;;;6.20;1.50;;;;;;;-144.59;100.00;63158.22;4950435;29;20263;-82
2022/10/23 11:18:48;;;;;;;4.73;1.97;;;;;;;-144.59;100.00;63158.22;4953063;28;20219;-82
2022/10/23 11:21:36;;;;;;;3.17;1.80;;;;;;;-144.59;100.00;63158.22;4939015;29;20228;-82
2022/10/23 11:24:28;;;;;;;5.07;1.83;;;;;;;-144.59;100.00;63158.22;4990321;28;20301;-82
2022/10/23 11:27:14;;;;;;;3.13;1.80;;;;;;;-144.59;100.00;63158.22;4954087;28;20253;-82
2022/10/23 11:30:13;;;;;;;3.23;1.70;;;;;;;-144.59;100.00;63158.22;4950187;29;20196;-82
2022/10/23 11:33:12;;;;;;;3.50;1.87;;;;;;;-144.59;100.00;63158.22;4975680;28;20206;-82
2022/10/23 11:35:56;;;;;;;2.70;1.73;;;;;;;-144.59;100.00;63158.22;4970123;28;20199;-82
2022/10/23 11:38:29;;;;;;;3.53;1.50;;;;;;;-144.59;100.00;63158.22;4974507;28;20200;-82
2022/10/23 11:41:02;;;;;;;3.47;2.00;;;;;;;-144.59;100.00;63158.22;4916208;29;20263;-82
2022/10/23 11:43:34;;;;;;;3.93;1.40;;;;;;;-144.59;100.00;63158.22;4916185;29;20202;-82
2022/10/23 11:46:15;;;;;;;4.77;1.47;;;;;;;-144.59;100.00;63158.22;4914337;29;20312;-81